Time;durP1;ratioP1;P1;durP2;ratioP2;P2;SDS_P1;SDS_P2;PMS_P1;PMS_P2;Temp;Humidity;BMP_temperature;BMP_pressure;BME280_temperature;BME280_humidity;BME280_pressure;Samples;Min_cycle;Max_cycle;Signal;HPM_P1;HPM_P2
2022/11/26 00:01:12;;;;;;;10.63;2.10;;;;;;;;;;4950071;28;20062;-67
2022/11/26 00:03:40;;;;;;;6.65;2.20;;;;;;;;;;4965747;28;20058;-67
2022/11/26 00:06:16;;;;;;;5.03;2.10;;;;;;;;;;4943381;28;20062;-69
2022/11/26 00:08:42;;;;;;;5.95;2.22;;;;;;;;;;4961515;28;20077;-67
2022/11/26 00:11:14;;;;;;;5.47;1.90;;;;;;;;;;4927610;28;20051;-67
2022/11/26 00:13:41;;;;;;;4.97;2.05;;;;;;;;;;4965365;28;20054;-67
2022/11/26 00:16:08;;;;;;;6.13;2.03;;;;;;;;;;4946371;28;20087;-65
2022/11/26 00:18:35;;;;;;;5.22;2.03;;;;;;;;;;4934656;28;20060;-69
2022/11/26 00:21:09;;;;;;;7.40;2.33;;;;;;;;;;4975715;28;20050;-69
2022/11/26 00:23:36;;;;;;;6.72;2.08;;;;;;;;;;4954078;28;20073;-66
2022/11/26 00:26:03;;;;;;;4.15;1.92;;;;;;;;;;4979027;28;20069;-64
2022/11/26 00:28:31;;;;;;;5.90;1.92;;;;;;;;;;4943228;28;20046;-62
2022/11/26 00:30:58;;;;;;;7.10;2.00;;;;;;;;;;4949913;28;20057;-64
2022/11/26 00:33:25;;;;;;;4.63;1.70;;;;;;;;;;4970735;28;20050;-63
2022/11/26 00:35:54;;;;;;;4.50;1.80;;;;;;;;;;4963422;28;20069;-64
2022/11/26 00:38:22;;;;;;;5.55;2.47;;;;;;;;;;4955199;28;20053;-64
2022/11/26 00:40:49;;;;;;;8.25;1.90;;;;;;;;;;4960749;28;20046;-68
2022/11/26 00:43:16;;;;;;;4.97;1.67;;;;;;;;;;4957726;28;20058;-67
2022/11/26 00:45:43;;;;;;;8.63;2.28;;;;;;;;;;4959373;28;20050;-69
2022/11/26 00:48:10;;;;;;;6.53;2.03;;;;;;;;;;4957412;28;20055;-67
2022/11/26 00:50:38;;;;;;;5.82;2.05;;;;;;;;;;4978281;28;20054;-64
2022/11/26 00:53:05;;;;;;;6.53;2.30;;;;;;;;;;4942097;28;20109;-68
2022/11/26 00:55:34;;;;;;;6.65;2.30;;;;;;;;;;4945628;28;20058;-65
2022/11/26 00:58:00;;;;;;;;;;;;;;;;;;4947953;28;20080;-69
2022/11/26 01:00:28;;;;;;;6.72;2.13;;;;;;;;;;4950496;28;19925;-68
2022/11/26 01:02:55;;;;;;;3.55;1.77;;;;;;;;;;4959463;28;20113;-65
2022/11/26 01:05:22;;;;;;;6.93;2.05;;;;;;;;;;4907681;28;20125;-64
2022/11/26 01:07:49;;;;;;;6.18;1.83;;;;;;;;;;4934762;28;20125;-67
2022/11/26 01:10:16;;;;;;;8.23;2.17;;;;;;;;;;4926395;28;20058;-66
2022/11/26 01:12:45;;;;;;;5.78;2.20;;;;;;;;;;4940297;28;20081;-69
2022/11/26 01:15:12;;;;;;;8.02;2.10;;;;;;;;;;4967144;28;20058;-64
2022/11/26 01:17:38;;;;;;;6.18;2.13;;;;;;;;;;4957615;28;20086;-65
2022/11/26 01:20:15;;;;;;;7.55;2.47;;;;;;;;;;4946886;28;20062;-65
2022/11/26 01:22:41;;;;;;;4.75;1.90;;;;;;;;;;4952762;28;20066;-64
2022/11/26 01:25:08;;;;;;;5.85;2.10;;;;;;;;;;4946013;28;20129;-67
2022/11/26 01:27:35;;;;;;;4.50;1.90;;;;;;;;;;4949774;28;20055;-66
2022/11/26 01:30:03;;;;;;;6.28;2.17;;;;;;;;;;4931904;28;20054;-67
2022/11/26 01:32:29;;;;;;;5.78;2.05;;;;;;;;;;4934982;28;20138;-70
2022/11/26 01:34:56;;;;;;;6.53;1.90;;;;;;;;;;4966861;28;20058;-68
2022/11/26 01:37:22;;;;;;;6.07;1.90;;;;;;;;;;4933784;28;20054;-71
2022/11/26 01:39:49;;;;;;;5.85;2.08;;;;;;;;;;4944415;28;20057;-69
2022/11/26 01:42:22;;;;;;;6.57;1.92;;;;;;;;;;4936810;28;20055;-68
2022/11/26 01:44:48;;;;;;;4.15;1.90;;;;;;;;;;4963191;28;20063;-68
2022/11/26 01:47:21;;;;;;;6.63;2.10;;;;;;;;;;4930403;28;20066;-65
2022/11/26 01:50:02;;;;;;;5.20;1.90;;;;;;;;;;4930914;28;20169;-64
2022/11/26 01:52:28;;;;;;;6.60;2.33;;;;;;;;;;4944478;28;20055;-62
2022/11/26 01:54:55;;;;;;;6.05;2.15;;;;;;;;;;4944659;28;20090;-69
2022/11/26 01:57:24;;;;;;;4.80;2.10;;;;;;;;;;4937845;28;20051;-66
2022/11/26 01:59:52;;;;;;;5.38;2.17;;;;;;;;;;4926716;28;20050;-67
2022/11/26 02:02:20;;;;;;;7.88;2.30;;;;;;;;;;4948356;28;20051;-64
2022/11/26 02:04:47;;;;;;;;;;;;;;;;;;4951180;28;20082;-65
2022/11/26 02:07:13;;;;;;;5.03;1.88;;;;;;;;;;4958442;28;19921;-68
2022/11/26 02:09:40;;;;;;;5.43;1.92;;;;;;;;;;4940131;28;20066;-63
2022/11/26 02:12:06;;;;;;;6.57;2.20;;;;;;;;;;4984568;28;20077;-68
2022/11/26 02:14:35;;;;;;;5.10;1.75;;;;;;;;;;4953494;28;20117;-64
2022/11/26 02:17:06;;;;;;;4.60;1.92;;;;;;;;;;4984696;28;20053;-66
2022/11/26 02:20:01;;;;;;;8.25;2.15;;;;;;;;;;4971870;28;20073;-68
2022/11/26 02:22:37;;;;;;;5.68;1.88;;;;;;;;;;5000685;28;20049;-65
2022/11/26 02:25:09;;;;;;;5.25;1.80;;;;;;;;;;4980743;28;20038;-65
2022/11/26 02:27:56;;;;;;;6.95;2.33;;;;;;;;;;4980812;28;20181;-65
2022/11/26 02:30:24;;;;;;;3.70;1.77;;;;;;;;;;4980716;28;20070;-63
2022/11/26 02:32:56;;;;;;;5.47;2.00;;;;;;;;;;4995336;28;20055;-64
2022/11/26 02:35:24;;;;;;;6.05;2.20;;;;;;;;;;4972347;28;20045;-68
2022/11/26 02:37:54;;;;;;;9.07;1.90;;;;;;;;;;4982576;28;20057;-67
2022/11/26 02:40:21;;;;;;;4.80;1.98;;;;;;;;;;4980224;28;20065;-68
2022/11/26 02:42:47;;;;;;;5.80;2.03;;;;;;;;;;4984480;28;20112;-67
2022/11/26 02:45:16;;;;;;;6.28;2.03;;;;;;;;;;4997946;28;20076;-68
2022/11/26 02:47:42;;;;;;;;;;;;;;;;;;5002667;28;20112;-65
2022/11/26 02:50:12;;;;;;;3.75;1.77;;;;;;;;;;4976887;28;19965;-67
2022/11/26 02:52:40;;;;;;;6.22;2.08;;;;;;;;;;4954163;28;20148;-63
2022/11/26 02:55:08;;;;;;;5.10;2.05;;;;;;;;;;4966759;28;20058;-65
2022/11/26 02:57:36;;;;;;;7.50;2.92;;;;;;;;;;4959549;28;20057;-64
2022/11/26 03:00:04;;;;;;;5.00;2.08;;;;;;;;;;4984541;28;20054;-66
2022/11/26 03:02:34;;;;;;;7.43;1.92;;;;;;;;;;4972915;28;20074;-63
2022/11/26 03:05:01;;;;;;;7.65;2.50;;;;;;;;;;4970352;28;20061;-70
2022/11/26 03:07:30;;;;;;;6.07;2.30;;;;;;;;;;4968104;28;20142;-67
2022/11/26 03:09:58;;;;;;;5.50;2.28;;;;;;;;;;4982915;28;20098;-66
2022/11/26 03:12:25;;;;;;;6.70;2.40;;;;;;;;;;4970287;28;20165;-66
2022/11/26 03:14:52;;;;;;;4.47;2.10;;;;;;;;;;4946369;28;20089;-67
2022/11/26 03:17:18;;;;;;;6.05;2.25;;;;;;;;;;4942344;28;20051;-64
2022/11/26 03:19:45;;;;;;;6.97;2.42;;;;;;;;;;4949451;28;20080;-65
2022/11/26 03:22:12;;;;;;;6.97;2.72;;;;;;;;;;4952715;28;20677;-69
2022/11/26 03:24:40;;;;;;;9.68;2.35;;;;;;;;;;4952776;28;20477;-65
2022/11/26 03:27:07;;;;;;;8.85;2.28;;;;;;;;;;4938960;28;20173;-66
2022/11/26 03:29:33;;;;;;;10.35;2.75;;;;;;;;;;4954545;28;20069;-67
2022/11/26 03:32:00;;;;;;;5.90;1.98;;;;;;;;;;4946503;28;20054;-68
2022/11/26 03:34:26;;;;;;;5.97;2.42;;;;;;;;;;4962507;28;20054;-65
2022/11/26 03:36:53;;;;;;;9.55;2.08;;;;;;;;;;4956347;28;20073;-67
2022/11/26 03:39:19;;;;;;;7.05;2.15;;;;;;;;;;4952279;28;20060;-65
2022/11/26 03:41:47;;;;;;;6.80;2.28;;;;;;;;;;4948119;28;20058;-65
2022/11/26 03:44:14;;;;;;;6.17;2.00;;;;;;;;;;4960236;28;20069;-65
2022/11/26 03:46:40;;;;;;;6.30;2.25;;;;;;;;;;4955284;28;20317;-64
2022/11/26 03:49:07;;;;;;;5.63;2.33;;;;;;;;;;4941224;28;20054;-66
2022/11/26 03:51:34;;;;;;;5.13;2.15;;;;;;;;;;4936864;28;20071;-66
2022/11/26 03:54:00;;;;;;;3.70;1.90;;;;;;;;;;4960669;28;20054;-64
2022/11/26 03:56:27;;;;;;;5.28;2.33;;;;;;;;;;4964120;28;20054;-65
2022/11/26 03:58:55;;;;;;;7.35;2.40;;;;;;;;;;4947897;28;20057;-67
2022/11/26 04:01:21;;;;;;;4.68;2.25;;;;;;;;;;4968204;28;20401;-65
2022/11/26 04:03:48;;;;;;;6.63;2.45;;;;;;;;;;4975699;28;20057;-67
2022/11/26 04:06:15;;;;;;;7.15;2.42;;;;;;;;;;4978393;28;20054;-67
2022/11/26 04:08:41;;;;;;;4.90;2.30;;;;;;;;;;4962491;28;20101;-66
2022/11/26 04:11:08;;;;;;;7.45;2.33;;;;;;;;;;4967553;28;20049;-69
2022/11/26 04:13:34;;;;;;;8.50;2.97;;;;;;;;;;4966880;28;20047;-68
2022/11/26 04:16:02;;;;;;;8.52;2.60;;;;;;;;;;4961102;28;20045;-67
2022/11/26 04:18:29;;;;;;;5.37;2.37;;;;;;;;;;4973670;28;20074;-66
2022/11/26 04:20:55;;;;;;;5.03;2.10;;;;;;;;;;4956341;28;20054;-64
2022/11/26 04:23:22;;;;;;;6.25;2.42;;;;;;;;;;4956323;28;20148;-63
2022/11/26 04:25:48;;;;;;;8.70;2.15;;;;;;;;;;4977113;28;20065;-66
2022/11/26 04:28:15;;;;;;;6.15;2.08;;;;;;;;;;4981347;28;20486;-68
2022/11/26 04:30:42;;;;;;;10.80;2.30;;;;;;;;;;4963657;28;20048;-69
2022/11/26 04:33:10;;;;;;;6.93;2.58;;;;;;;;;;4979955;28;20064;-66
2022/11/26 04:35:37;;;;;;;5.65;2.17;;;;;;;;;;4978290;28;20065;-65
2022/11/26 04:38:04;;;;;;;6.40;2.10;;;;;;;;;;4958101;28;20095;-68
2022/11/26 04:40:30;;;;;;;7.20;2.80;;;;;;;;;;4969475;28;20050;-68
2022/11/26 04:42:57;;;;;;;6.30;2.40;;;;;;;;;;4965760;28;20042;-65
2022/11/26 04:45:23;;;;;;;4.50;2.17;;;;;;;;;;4939529;28;20054;-68
2022/11/26 04:47:50;;;;;;;7.95;2.45;;;;;;;;;;4926809;28;20050;-68
2022/11/26 04:50:18;;;;;;;7.53;2.80;;;;;;;;;;4973190;28;20101;-68
2022/11/26 04:52:47;;;;;;;9.70;2.60;;;;;;;;;;4986805;28;20065;-67
2022/11/26 04:55:13;;;;;;;6.15;2.38;;;;;;;;;;4989161;28;20140;-66
2022/11/26 04:57:40;;;;;;;6.60;2.30;;;;;;;;;;4961359;28;20057;-69
2022/11/26 05:00:08;;;;;;;7.00;2.70;;;;;;;;;;4945529;28;20123;-65
2022/11/26 05:02:34;;;;;;;8.70;2.65;;;;;;;;;;4971259;28;20530;-65
2022/11/26 05:05:01;;;;;;;5.35;2.40;;;;;;;;;;4961267;28;20086;-67
2022/11/26 05:07:29;;;;;;;6.10;2.70;;;;;;;;;;4937404;28;20047;-64
2022/11/26 05:09:55;;;;;;;5.77;2.13;;;;;;;;;;4946918;28;20061;-68
2022/11/26 05:12:22;;;;;;;6.47;2.55;;;;;;;;;;4941661;28;20317;-64
2022/11/26 05:14:48;;;;;;;6.90;2.67;;;;;;;;;;4943246;28;20058;-68
2022/11/26 05:17:15;;;;;;;6.82;2.72;;;;;;;;;;4936560;28;20055;-67
2022/11/26 05:19:41;;;;;;;6.15;2.60;;;;;;;;;;4963877;28;20058;-66
2022/11/26 05:22:08;;;;;;;7.07;2.60;;;;;;;;;;4942545;28;20108;-66
2022/11/26 05:24:36;;;;;;;6.57;2.90;;;;;;;;;;4960858;28;20054;-69
2022/11/26 05:27:03;;;;;;;5.95;2.65;;;;;;;;;;4948367;28;20038;-64
2022/11/26 05:29:30;;;;;;;8.68;3.15;;;;;;;;;;4930634;28;20065;-64
2022/11/26 05:31:57;;;;;;;8.65;2.75;;;;;;;;;;4935814;28;20062;-66
2022/11/26 05:34:23;;;;;;;8.35;2.78;;;;;;;;;;4983832;28;20058;-63
2022/11/26 05:36:50;;;;;;;7.53;2.30;;;;;;;;;;4971161;28;20224;-66
2022/11/26 05:39:16;;;;;;;6.03;2.33;;;;;;;;;;4933731;28;20054;-65
2022/11/26 05:41:44;;;;;;;8.05;2.75;;;;;;;;;;4980705;28;20095;-68
2022/11/26 05:44:11;;;;;;;6.93;2.75;;;;;;;;;;4936536;28;20058;-68
2022/11/26 05:46:39;;;;;;;5.63;2.55;;;;;;;;;;4964399;28;20050;-66
2022/11/26 05:49:05;;;;;;;5.90;2.60;;;;;;;;;;4951103;28;20065;-67
2022/11/26 05:51:32;;;;;;;6.53;2.60;;;;;;;;;;4945830;28;20054;-68
2022/11/26 05:53:58;;;;;;;7.10;2.90;;;;;;;;;;4925125;28;20187;-66
2022/11/26 05:56:25;;;;;;;5.82;2.55;;;;;;;;;;4950537;28;20054;-64
2022/11/26 05:58:53;;;;;;;6.65;2.80;;;;;;;;;;4935856;28;20058;-67
2022/11/26 06:01:19;;;;;;;8.77;2.63;;;;;;;;;;4960110;28;20081;-65
2022/11/26 06:03:46;;;;;;;7.72;2.85;;;;;;;;;;4953723;28;20061;-68
2022/11/26 06:06:12;;;;;;;5.50;2.38;;;;;;;;;;4934025;28;20066;-65
2022/11/26 06:08:39;;;;;;;5.63;2.55;;;;;;;;;;4948824;28;20057;-66
2022/11/26 06:11:05;;;;;;;6.78;2.53;;;;;;;;;;4946128;28;20046;-67
2022/11/26 06:13:32;;;;;;;6.82;2.60;;;;;;;;;;4945820;28;20069;-65
2022/11/26 06:16:00;;;;;;;6.80;2.92;;;;;;;;;;4946191;28;20062;-69
2022/11/26 06:18:27;;;;;;;5.72;2.45;;;;;;;;;;4936004;28;20054;-67
2022/11/26 06:20:53;;;;;;;5.45;2.35;;;;;;;;;;4945158;28;20137;-68
2022/11/26 06:23:20;;;;;;;7.78;2.78;;;;;;;;;;4948104;28;20053;-65
2022/11/26 06:25:47;;;;;;;6.00;2.65;;;;;;;;;;4920956;28;20059;-62
2022/11/26 06:28:13;;;;;;;7.50;2.80;;;;;;;;;;4971498;28;20069;-66
2022/11/26 06:30:39;;;;;;;6.13;2.58;;;;;;;;;;4938522;28;20059;-68
2022/11/26 06:33:08;;;;;;;11.10;3.03;;;;;;;;;;4923965;28;20063;-66
2022/11/26 06:35:34;;;;;;;7.25;2.72;;;;;;;;;;4931362;28;20058;-69
2022/11/26 06:38:01;;;;;;;5.30;2.20;;;;;;;;;;4945668;28;20058;-65
2022/11/26 06:40:27;;;;;;;8.05;2.75;;;;;;;;;;4936820;28;20070;-66
2022/11/26 06:42:54;;;;;;;7.38;2.67;;;;;;;;;;4964966;28;20050;-67
2022/11/26 06:45:21;;;;;;;7.15;2.67;;;;;;;;;;4922838;28;20055;-68
2022/11/26 06:47:48;;;;;;;5.95;2.50;;;;;;;;;;4948721;28;20150;-65
2022/11/26 06:50:17;;;;;;;7.68;2.70;;;;;;;;;;4931670;28;20058;-65
2022/11/26 06:52:43;;;;;;;9.35;3.00;;;;;;;;;;4937315;28;20065;-65
2022/11/26 06:55:09;;;;;;;5.78;2.67;;;;;;;;;;4955684;28;20061;-68
2022/11/26 06:57:36;;;;;;;7.20;3.08;;;;;;;;;;4921248;28;20125;-67
2022/11/26 07:00:03;;;;;;;6.57;2.80;;;;;;;;;;4942046;28;20066;-64
2022/11/26 07:02:30;;;;;;;7.07;3.08;;;;;;;;;;4925546;28;20234;-64
2022/11/26 07:04:57;;;;;;;4.68;2.38;;;;;;;;;;4963152;28;20060;-68
2022/11/26 07:07:25;;;;;;;6.43;3.10;;;;;;;;;;4937516;28;20050;-65
2022/11/26 07:09:51;;;;;;;8.63;2.55;;;;;;;;;;4976909;28;20058;-67
2022/11/26 07:12:20;;;;;;;6.90;2.80;;;;;;;;;;4958479;28;20084;-68
2022/11/26 07:14:47;;;;;;;9.10;3.15;;;;;;;;;;4966884;28;20054;-66
2022/11/26 07:17:13;;;;;;;6.60;2.42;;;;;;;;;;4959329;28;20066;-66
2022/11/26 07:19:40;;;;;;;8.98;3.15;;;;;;;;;;4957162;28;20116;-65
2022/11/26 07:22:06;;;;;;;9.15;2.97;;;;;;;;;;4978310;28;20058;-69
2022/11/26 07:24:34;;;;;;;7.88;2.63;;;;;;;;;;4936009;28;20064;-69
2022/11/26 07:27:01;;;;;;;6.57;3.28;;;;;;;;;;4947064;28;20058;-67
2022/11/26 07:29:28;;;;;;;7.55;2.75;;;;;;;;;;4953472;28;20058;-69
2022/11/26 07:31:54;;;;;;;6.35;2.30;;;;;;;;;;4961738;28;20057;-68
2022/11/26 07:34:21;;;;;;;6.03;2.55;;;;;;;;;;4955871;28;20056;-69
2022/11/26 07:36:48;;;;;;;5.68;2.47;;;;;;;;;;4952273;28;20061;-65
2022/11/26 07:39:15;;;;;;;4.90;2.33;;;;;;;;;;4966391;28;20153;-65
2022/11/26 07:41:42;;;;;;;7.53;2.80;;;;;;;;;;4964312;28;20096;-67
2022/11/26 07:44:11;;;;;;;9.17;2.77;;;;;;;;;;4977959;28;20141;-65
2022/11/26 07:46:37;;;;;;;;;;;;;;;;;;4962653;28;20062;-65
2022/11/26 07:49:07;;;;;;;5.55;2.35;;;;;;;;;;4972309;28;19926;-68
2022/11/26 07:51:35;;;;;;;7.85;3.17;;;;;;;;;;4917309;28;20058;-66
2022/11/26 07:54:04;;;;;;;6.68;2.72;;;;;;;;;;4952088;28;20072;-66
2022/11/26 07:56:30;;;;;;;8.20;2.53;;;;;;;;;;4958306;28;20058;-66
2022/11/26 07:58:58;;;;;;;8.07;2.80;;;;;;;;;;4969681;28;20073;-66
2022/11/26 08:01:28;;;;;;;5.63;2.50;;;;;;;;;;4983867;28;20058;-64
2022/11/26 08:03:55;;;;;;;6.13;2.55;;;;;;;;;;4973792;28;20116;-68
2022/11/26 08:06:23;;;;;;;6.25;2.40;;;;;;;;;;4967919;28;20060;-68
2022/11/26 08:08:50;;;;;;;8.55;2.45;;;;;;;;;;4965477;28;20064;-66
2022/11/26 08:11:17;;;;;;;6.85;2.58;;;;;;;;;;4965223;28;20049;-68
2022/11/26 08:13:44;;;;;;;6.00;2.60;;;;;;;;;;4972161;28;20050;-68
2022/11/26 08:16:12;;;;;;;9.38;2.78;;;;;;;;;;4967904;28;20049;-66
2022/11/26 08:18:39;;;;;;;5.85;2.53;;;;;;;;;;4968955;28;20065;-69
2022/11/26 08:21:06;;;;;;;8.82;2.95;;;;;;;;;;4944815;28;20061;-68
2022/11/26 08:23:38;;;;;;;6.82;2.65;;;;;;;;;;4937972;28;20049;-67
2022/11/26 08:26:05;;;;;;;6.88;2.78;;;;;;;;;;4997698;28;20061;-65
2022/11/26 08:28:32;;;;;;;8.95;2.80;;;;;;;;;;4947650;28;20051;-67
2022/11/26 08:31:01;;;;;;;8.43;3.08;;;;;;;;;;4959749;28;20054;-66
2022/11/26 08:33:29;;;;;;;9.73;2.47;;;;;;;;;;4975677;28;20058;-68
2022/11/26 08:35:55;;;;;;;8.15;2.72;;;;;;;;;;4962715;28;20124;-66
2022/11/26 08:38:22;;;;;;;7.35;2.47;;;;;;;;;;4979843;28;20057;-67
2022/11/26 08:40:53;;;;;;;8.60;2.75;;;;;;;;;;4978736;28;20104;-67
2022/11/26 08:43:19;;;;;;;5.65;2.35;;;;;;;;;;4904056;28;20193;-65
2022/11/26 08:45:51;;;;;;;9.32;2.60;;;;;;;;;;4962593;28;20150;-64
2022/11/26 08:48:17;;;;;;;5.88;2.25;;;;;;;;;;4954990;28;20212;-65
2022/11/26 08:50:45;;;;;;;6.72;2.67;;;;;;;;;;4961144;28;20054;-66
2022/11/26 08:53:12;;;;;;;5.33;2.30;;;;;;;;;;4941845;28;20054;-68
2022/11/26 08:55:38;;;;;;;6.32;2.92;;;;;;;;;;4965966;28;20376;-68
2022/11/26 08:58:07;;;;;;;7.50;2.75;;;;;;;;;;4986129;28;20117;-69
2022/11/26 09:00:33;;;;;;;;;;;;;;;;;;4942399;28;20144;-65
2022/11/26 09:03:04;;;;;;;6.78;2.50;;;;;;;;;;4941689;28;19933;-66
2022/11/26 09:05:31;;;;;;;9.43;3.00;;;;;;;;;;4940102;28;20131;-68
2022/11/26 09:07:59;;;;;;;6.90;2.78;;;;;;;;;;4972689;28;20061;-67
2022/11/26 09:10:26;;;;;;;7.95;3.08;;;;;;;;;;4992928;28;20050;-66
2022/11/26 09:12:52;;;;;;;7.22;3.03;;;;;;;;;;4981718;28;20057;-68
2022/11/26 09:15:21;;;;;;;7.43;3.05;;;;;;;;;;4944971;28;20054;-67
2022/11/26 09:17:47;;;;;;;10.20;3.75;;;;;;;;;;4962493;28;20097;-67
2022/11/26 09:20:14;;;;;;;12.07;5.97;;;;;;;;;;4965012;28;20187;-69
2022/11/26 09:22:46;;;;;;;17.90;6.78;;;;;;;;;;4967504;28;20064;-67
2022/11/26 09:25:16;;;;;;;12.57;6.32;;;;;;;;;;4961884;28;20058;-68
2022/11/26 09:27:45;;;;;;;14.25;6.10;;;;;;;;;;4958864;28;20053;-66
2022/11/26 09:30:12;;;;;;;17.05;6.28;;;;;;;;;;4980975;28;20050;-68
2022/11/26 09:32:39;;;;;;;15.65;5.80;;;;;;;;;;4968959;28;20064;-65
2022/11/26 09:35:08;;;;;;;12.48;5.78;;;;;;;;;;4929389;28;20062;-67
2022/11/26 09:37:35;;;;;;;13.70;6.22;;;;;;;;;;4945401;28;20061;-65
2022/11/26 09:40:02;;;;;;;13.40;5.75;;;;;;;;;;4981112;28;20061;-67
2022/11/26 09:42:37;;;;;;;13.18;5.55;;;;;;;;;;4976482;28;20061;-66
2022/11/26 09:45:11;;;;;;;11.88;5.43;;;;;;;;;;4966275;28;20125;-66
2022/11/26 09:47:39;;;;;;;10.15;5.15;;;;;;;;;;4951827;28;20148;-68
2022/11/26 09:50:08;;;;;;;14.15;5.05;;;;;;;;;;4956560;28;20163;-67
2022/11/26 09:52:36;;;;;;;17.40;6.72;;;;;;;;;;4943215;28;20057;-68
2022/11/26 09:55:08;;;;;;;10.88;5.40;;;;;;;;;;4953539;28;20061;-68
2022/11/26 09:57:39;;;;;;;10.65;5.00;;;;;;;;;;4937417;28;20136;-69
2022/11/26 10:00:15;;;;;;;12.68;4.88;;;;;;;;;;4955159;28;20064;-67
2022/11/26 10:02:43;;;;;;;13.38;4.80;;;;;;;;;;4929657;28;20053;-66
2022/11/26 10:05:12;;;;;;;12.23;5.82;;;;;;;;;;4949332;28;20058;-70
2022/11/26 10:07:47;;;;;;;12.57;4.68;;;;;;;;;;4976594;28;20062;-68
2022/11/26 10:10:16;;;;;;;11.10;4.35;;;;;;;;;;4941250;28;20053;-65
2022/11/26 10:12:50;;;;;;;10.05;4.65;;;;;;;;;;4946696;28;20053;-65
2022/11/26 10:15:17;;;;;;;11.45;5.03;;;;;;;;;;4945352;28;20058;-66
2022/11/26 10:17:47;;;;;;;13.02;5.15;;;;;;;;;;4972793;28;20062;-67
2022/11/26 10:20:29;;;;;;;11.57;5.00;;;;;;;;;;4951129;28;20114;-66
2022/11/26 10:22:58;;;;;;;12.27;4.90;;;;;;;;;;4959872;28;20057;-67
2022/11/26 10:25:24;;;;;;;;;;;;;;;;;;4934852;28;20059;-70
2022/11/26 10:27:54;;;;;;;12.50;4.40;;;;;;;;;;4958652;28;19952;-69
2022/11/26 10:30:21;;;;;;;11.15;4.60;;;;;;;;;;4958470;28;20049;-65
2022/11/26 10:32:49;;;;;;;9.38;3.88;;;;;;;;;;4971389;28;20050;-67
2022/11/26 10:35:16;;;;;;;10.70;4.57;;;;;;;;;;4955997;28;20042;-65
2022/11/26 10:37:43;;;;;;;12.07;4.33;;;;;;;;;;4974637;28;20053;-67
2022/11/26 10:40:17;;;;;;;12.10;4.72;;;;;;;;;;4971930;28;20045;-64
2022/11/26 10:42:51;;;;;;;11.80;4.20;;;;;;;;;;4985689;28;20054;-67
2022/11/26 10:45:21;;;;;;;13.50;4.13;;;;;;;;;;4957321;28;20056;-66
2022/11/26 10:47:47;;;;;;;10.30;4.20;;;;;;;;;;4968209;28;20046;-64
2022/11/26 10:50:20;;;;;;;11.50;4.22;;;;;;;;;;4955207;28;20037;-68
2022/11/26 10:52:46;;;;;;;14.82;4.57;;;;;;;;;;4932200;28;20059;-67
2022/11/26 10:55:18;;;;;;;12.40;4.78;;;;;;;;;;4898229;29;20055;-65
2022/11/26 10:57:50;;;;;;;9.93;3.75;;;;;;;;;;4928359;28;20060;-67
2022/11/26 11:00:43;;;;;;;9.23;4.03;;;;;;;;;;4948803;28;20057;-67
2022/11/26 11:03:19;;;;;;;11.40;3.70;;;;;;;;;;4926977;28;20128;-68
2022/11/26 11:05:46;;;;;;;9.63;4.07;;;;;;;;;;4978233;28;20054;-70
2022/11/26 11:08:14;;;;;;;9.65;3.95;;;;;;;;;;4959323;28;20053;-67
2022/11/26 11:10:52;;;;;;;11.13;4.57;;;;;;;;;;4939891;28;20066;-70
2022/11/26 11:13:20;;;;;;;9.20;3.70;;;;;;;;;;4945395;28;20100;-70
2022/11/26 11:15:48;;;;;;;9.77;3.92;;;;;;;;;;4940898;28;20104;-68
2022/11/26 11:18:19;;;;;;;10.10;4.10;;;;;;;;;;4984489;28;20054;-67
2022/11/26 11:20:51;;;;;;;9.80;3.80;;;;;;;;;;4935674;28;20106;-67
2022/11/26 11:23:19;;;;;;;12.27;4.05;;;;;;;;;;4958699;28;20058;-67
2022/11/26 11:25:47;;;;;;;11.10;3.85;;;;;;;;;;4965225;28;20062;-68
2022/11/26 11:28:16;;;;;;;9.18;3.83;;;;;;;;;;4915914;28;20056;-68
2022/11/26 11:30:43;;;;;;;10.00;4.10;;;;;;;;;;4946552;28;20054;-70
2022/11/26 11:33:11;;;;;;;11.43;3.88;;;;;;;;;;4970411;28;20053;-71
2022/11/26 11:35:41;;;;;;;10.02;3.85;;;;;;;;;;4966744;28;20253;-67
2022/11/26 11:38:21;;;;;;;12.20;3.53;;;;;;;;;;4983540;28;20077;-63
2022/11/26 11:40:47;;;;;;;13.18;3.85;;;;;;;;;;4962777;28;20058;-65
2022/11/26 11:43:16;;;;;;;9.32;3.67;;;;;;;;;;4950797;28;20050;-67
2022/11/26 11:45:43;;;;;;;;;;;;;;;;;;4982605;28;20060;-67
2022/11/26 11:48:17;;;;;;;8.43;3.28;;;;;;;;;;4960148;28;19928;-67
2022/11/26 11:50:53;;;;;;;7.47;3.20;;;;;;;;;;4979904;28;20217;-65
2022/11/26 11:53:38;;;;;;;11.07;3.75;;;;;;;;;;4957663;28;20058;-66
2022/11/26 11:56:14;;;;;;;10.80;3.70;;;;;;;;;;4962186;28;20056;-67
2022/11/26 11:58:50;;;;;;;12.85;3.67;;;;;;;;;;4995391;28;20077;-67
2022/11/26 12:01:23;;;;;;;10.13;3.63;;;;;;;;;;4972382;28;20149;-69
2022/11/26 12:04:03;;;;;;;10.63;3.35;;;;;;;;;;4992799;28;20096;-65
2022/11/26 12:06:39;;;;;;;11.00;3.90;;;;;;;;;;4921064;28;20050;-69
2022/11/26 12:09:13;;;;;;;10.68;3.50;;;;;;;;;;4925076;28;20160;-67
2022/11/26 12:11:50;;;;;;;8.70;3.80;;;;;;;;;;4940232;28;20113;-67
2022/11/26 12:14:19;;;;;;;10.95;3.60;;;;;;;;;;4934313;28;20050;-69
2022/11/26 12:16:47;;;;;;;8.95;3.17;;;;;;;;;;4947376;28;20058;-66
2022/11/26 12:19:17;;;;;;;8.40;3.35;;;;;;;;;;4944585;28;20062;-69
2022/11/26 12:21:53;;;;;;;7.88;3.25;;;;;;;;;;4941071;28;20062;-65
2022/11/26 12:24:24;;;;;;;12.98;3.55;;;;;;;;;;4931699;28;20049;-64
2022/11/26 12:26:53;;;;;;;7.18;2.70;;;;;;;;;;4939685;28;20054;-68
2022/11/26 12:29:24;;;;;;;8.38;3.35;;;;;;;;;;4929729;28;20067;-66
2022/11/26 12:31:55;;;;;;;10.48;3.42;;;;;;;;;;4922520;28;20074;-68
2022/11/26 12:34:24;;;;;;;7.80;3.22;;;;;;;;;;4937521;28;20035;-68
2022/11/26 12:36:53;;;;;;;11.40;3.03;;;;;;;;;;4942415;28;20054;-67
2022/11/26 12:39:28;;;;;;;11.30;3.45;;;;;;;;;;4932508;28;20118;-69
2022/11/26 12:41:56;;;;;;;8.75;3.08;;;;;;;;;;4942410;28;20051;-67
2022/11/26 12:44:37;;;;;;;13.77;3.40;;;;;;;;;;4939336;28;20049;-64
2022/11/26 12:47:09;;;;;;;9.63;3.65;;;;;;;;;;4908405;28;20130;-67
2022/11/26 12:49:39;;;;;;;10.23;3.33;;;;;;;;;;4922187;28;20051;-68
2022/11/26 12:52:16;;;;;;;10.90;3.28;;;;;;;;;;4928506;28;20070;-68
2022/11/26 12:54:47;;;;;;;10.35;3.40;;;;;;;;;;4913357;28;20050;-65
2022/11/26 12:57:17;;;;;;;8.35;2.78;;;;;;;;;;4944608;28;20058;-67
2022/11/26 12:59:46;;;;;;;10.15;3.35;;;;;;;;;;4915839;28;20129;-71
2022/11/26 13:02:13;;;;;;;;;;;;;;;;;;4955878;28;20140;-65
2022/11/26 13:04:39;;;;;;;9.05;2.60;;;;;;;;;;4955830;28;20034;-64
2022/11/26 13:07:12;;;;;;;8.68;2.70;;;;;;;;;;4982615;28;20065;-64
2022/11/26 13:09:52;;;;;;;9.90;3.20;;;;;;;;;;4941166;28;20049;-66
2022/11/26 13:12:25;;;;;;;10.70;2.88;;;;;;;;;;4959339;28;20084;-66
2022/11/26 13:14:53;;;;;;;12.85;2.83;;;;;;;;;;4957641;28;20050;-67
2022/11/26 13:17:20;;;;;;;;;;;;;;;;;;4968413;28;20061;-69
2022/11/26 13:19:49;;;;;;;6.38;2.33;;;;;;;;;;4953369;28;19949;-63
2022/11/26 13:22:34;;;;;;;8.82;2.40;;;;;;;;;;4933916;28;20057;-68
2022/11/26 13:25:18;;;;;;;7.90;2.58;;;;;;;;;;4958201;28;20057;-65
2022/11/26 13:27:52;;;;;;;6.57;2.70;;;;;;;;;;4965403;28;20054;-70
2022/11/26 13:30:21;;;;;;;8.13;2.70;;;;;;;;;;4965834;28;20095;-66
2022/11/26 13:32:47;;;;;;;;;;;;;;;;;;4967391;28;20050;-67
2022/11/26 13:35:18;;;;;;;18.77;3.35;;;;;;;;;;4975572;28;19933;-67
2022/11/26 13:37:55;;;;;;;12.07;3.40;;;;;;;;;;4946772;28;20054;-67
2022/11/26 13:40:35;;;;;;;9.27;3.30;;;;;;;;;;4952147;28;20046;-71
2022/11/26 13:43:10;;;;;;;12.25;3.22;;;;;;;;;;4903116;28;20065;-70
2022/11/26 13:45:52;;;;;;;17.27;3.72;;;;;;;;;;4916264;28;20067;-68
2022/11/26 13:48:20;;;;;;;15.18;3.65;;;;;;;;;;4916873;28;20258;-65
2022/11/26 13:50:49;;;;;;;14.10;3.75;;;;;;;;;;4945493;28;20066;-67
2022/11/26 13:53:20;;;;;;;18.02;4.03;;;;;;;;;;4925660;28;20072;-68
2022/11/26 13:55:49;;;;;;;16.10;3.72;;;;;;;;;;4911725;28;20200;-69
2022/11/26 13:58:19;;;;;;;16.90;3.58;;;;;;;;;;4928326;28;20059;-66
2022/11/26 14:00:46;;;;;;;20.60;3.63;;;;;;;;;;4928643;28;20059;-70
2022/11/26 14:03:41;;;;;;;68.20;21.83;;;;;;;;;;4948968;28;20058;-64
2022/11/26 14:06:11;;;;;;;39.20;15.48;;;;;;;;;;4943473;28;20093;-67
2022/11/26 14:08:40;;;;;;;17.95;5.22;;;;;;;;;;4939986;28;20088;-67
2022/11/26 14:11:08;;;;;;;16.60;4.85;;;;;;;;;;4954192;28;20059;-66
2022/11/26 14:13:36;;;;;;;16.67;3.83;;;;;;;;;;4927537;28;20051;-66
2022/11/26 14:16:04;;;;;;;14.27;3.70;;;;;;;;;;4951568;28;20061;-68
2022/11/26 14:18:50;;;;;;;14.10;3.90;;;;;;;;;;4917194;28;20063;-69
2022/11/26 14:21:17;;;;;;;15.57;3.90;;;;;;;;;;4939171;28;20062;-67
2022/11/26 14:23:45;;;;;;;12.05;3.47;;;;;;;;;;4914822;28;20073;-65
2022/11/26 14:26:17;;;;;;;18.95;4.35;;;;;;;;;;4920871;28;20057;-66
2022/11/26 14:28:51;;;;;;;12.25;3.70;;;;;;;;;;4941372;28;20062;-65
2022/11/26 14:31:21;;;;;;;14.00;3.50;;;;;;;;;;4933778;28;20057;-68
2022/11/26 14:33:48;;;;;;;13.98;3.55;;;;;;;;;;4942916;28;20197;-67
2022/11/26 14:36:19;;;;;;;14.18;5.15;;;;;;;;;;4939267;28;20054;-69
2022/11/26 14:38:48;;;;;;;14.43;3.92;;;;;;;;;;4923515;28;20082;-69
2022/11/26 14:41:21;;;;;;;18.83;3.88;;;;;;;;;;4926073;28;20059;-70
2022/11/26 14:44:13;;;;;;;17.35;3.67;;;;;;;;;;4932252;28;20059;-66
2022/11/26 14:46:45;;;;;;;16.75;3.67;;;;;;;;;;4889215;29;20052;-67
2022/11/26 14:49:25;;;;;;;11.60;3.30;;;;;;;;;;4829465;29;20056;-68
2022/11/26 14:52:06;;;;;;;13.88;3.22;;;;;;;;;;4875373;29;20053;-69
2022/11/26 14:54:38;;;;;;;9.45;2.88;;;;;;;;;;4821395;29;20347;-69